createdAt,value
2022-11-19T00:01:53.781Z,7.70
2022-11-19T00:03:56.837Z,7.10
2022-11-19T00:06:04.123Z,4.77
2022-11-19T00:08:06.086Z,3.90
2022-11-19T00:10:08.525Z,5.23
2022-11-19T00:12:29.777Z,4.37
2022-11-19T00:14:32.247Z,4.23
2022-11-19T00:16:59.146Z,4.80
2022-11-19T00:19:01.368Z,4.00
2022-11-19T00:21:07.579Z,5.07
2022-11-19T00:23:09.738Z,4.63
2022-11-19T00:25:12.148Z,9.30
2022-11-19T00:27:14.322Z,4.43
2022-11-19T00:29:18.113Z,4.93
2022-11-19T00:31:20.346Z,4.90
2022-11-19T00:33:22.565Z,6.80
2022-11-19T00:38:53.739Z,8.03
2022-11-19T00:40:55.816Z,6.17
2022-11-19T00:43:16.693Z,4.37
2022-11-19T00:45:20.159Z,5.07
2022-11-19T00:47:22.201Z,5.13
2022-11-19T00:49:24.322Z,4.10
2022-11-19T00:51:29.688Z,4.33
2022-11-19T00:53:32.175Z,6.20
2022-11-19T00:56:03.215Z,5.13
2022-11-19T00:58:05.422Z,7.50
2022-11-19T01:00:11.289Z,7.93
2022-11-19T01:02:13.335Z,5.77
2022-11-19T01:04:15.707Z,5.07
2022-11-19T01:06:24.004Z,5.33
2022-11-19T01:08:26.211Z,3.63
2022-11-19T01:10:28.371Z,5.00
2022-11-19T01:12:33.043Z,5.37
2022-11-19T01:14:35.145Z,6.87
2022-11-19T01:16:39.838Z,4.50
2022-11-19T01:18:46.812Z,4.20
2022-11-19T01:20:48.999Z,6.67
2022-11-19T01:22:51.016Z,6.50
2022-11-19T01:24:53.091Z,7.03
2022-11-19T01:26:54.969Z,6.40
2022-11-19T01:28:57.847Z,7.00
2022-11-19T01:30:59.943Z,5.03
2022-11-19T01:33:02.409Z,18.27
2022-11-19T01:35:07.462Z,16.93
2022-11-19T01:37:09.730Z,29.83
2022-11-19T01:39:11.758Z,25.93
2022-11-19T01:41:13.677Z,18.40
2022-11-19T01:43:15.547Z,12.83
2022-11-19T01:45:42.378Z,17.87
2022-11-19T01:47:44.744Z,16.90
2022-11-19T01:49:46.944Z,12.53
2022-11-19T01:51:58.802Z,8.83
2022-11-19T01:54:06.158Z,15.93
2022-11-19T01:56:10.087Z,15.97
2022-11-19T01:58:17.191Z,19.47
2022-11-19T02:00:19.539Z,28.13
2022-11-19T02:02:22.998Z,24.67
2022-11-19T02:04:27.175Z,18.77
2022-11-19T02:06:31.003Z,16.90
2022-11-19T02:08:47.138Z,16.67
2022-11-19T02:11:08.460Z,9.17
2022-11-19T02:13:25.497Z,10.63
2022-11-19T02:15:35.497Z,10.23
2022-11-19T02:18:22.213Z,11.70
2022-11-19T02:20:39.444Z,8.03
2022-11-19T02:23:15.622Z,10.50
2022-11-19T02:25:23.219Z,8.97
2022-11-19T02:27:56.262Z,10.47
2022-11-19T02:30:10.377Z,8.10
2022-11-19T02:32:20.593Z,7.70
2022-11-19T02:34:31.204Z,7.67
2022-11-19T02:36:48.519Z,7.93
2022-11-19T02:39:02.469Z,7.53
2022-11-19T02:41:34.666Z,10.93
2022-11-19T02:43:44.771Z,10.63
2022-11-19T02:45:56.377Z,14.57
2022-11-19T02:48:23.813Z,11.63
2022-11-19T02:50:32.076Z,10.33
2022-11-19T02:52:35.210Z,13.83
2022-11-19T02:54:37.217Z,9.23
2022-11-19T02:56:54.923Z,9.47
2022-11-19T02:59:18.936Z,8.43
2022-11-19T03:01:41.855Z,8.67
2022-11-19T03:04:02.775Z,9.63
2022-11-19T03:06:12.092Z,20.33
2022-11-19T03:08:14.235Z,16.03
2022-11-19T03:10:21.220Z,15.43
2022-11-19T03:12:37.327Z,15.63
2022-11-19T03:15:26.353Z,62.13
2022-11-19T03:17:51.250Z,114.50
2022-11-19T03:20:08.488Z,139.83
2022-11-19T03:22:18.979Z,98.10
2022-11-19T03:24:34.346Z,79.70
2022-11-19T03:26:42.397Z,51.87
2022-11-19T03:28:47.666Z,47.57
2022-11-19T03:30:51.618Z,37.20
2022-11-19T03:33:00.986Z,24.77
2022-11-19T03:35:09.447Z,32.60
2022-11-19T03:37:15.569Z,26.63
2022-11-19T03:39:22.677Z,19.37
2022-11-19T03:41:27.199Z,15.13
2022-11-19T03:43:33.741Z,14.13
2022-11-19T03:45:43.428Z,13.63
2022-11-19T03:47:48.971Z,10.77
2022-11-19T03:49:59.725Z,17.23
2022-11-19T03:52:11.817Z,27.03
2022-11-19T03:54:13.917Z,31.77
2022-11-19T03:56:20.884Z,34.70
2022-11-19T03:58:27.183Z,25.03
2022-11-19T04:00:29.438Z,15.70
2022-11-19T04:02:31.829Z,14.83
2022-11-19T04:04:39.914Z,12.67
2022-11-19T04:06:42.075Z,15.27
2022-11-19T04:08:44.223Z,16.73
2022-11-19T04:10:46.373Z,20.10
2022-11-19T04:12:48.360Z,18.77
2022-11-19T04:14:51.206Z,33.27
2022-11-19T04:16:53.224Z,29.03
2022-11-19T04:18:55.342Z,28.43
2022-11-19T04:20:57.491Z,28.67
2022-11-19T04:22:59.943Z,20.70
2022-11-19T04:25:02.029Z,27.50
2022-11-19T04:27:04.292Z,25.57
2022-11-19T04:29:06.343Z,21.07
2022-11-19T04:31:11.313Z,18.43
2022-11-19T04:33:16.904Z,19.53
2022-11-19T04:35:22.109Z,15.17
2022-11-19T04:37:26.994Z,17.37
2022-11-19T04:39:29.263Z,20.77
2022-11-19T04:41:31.432Z,18.93
2022-11-19T04:43:33.782Z,15.43
2022-11-19T04:45:36.167Z,17.97
2022-11-19T04:47:38.325Z,16.87
2022-11-19T04:49:40.534Z,17.03
2022-11-19T04:51:42.837Z,21.03
2022-11-19T04:53:44.921Z,23.50
2022-11-19T04:55:46.984Z,21.77
2022-11-19T04:57:51.998Z,16.53
2022-11-19T04:59:54.061Z,16.73
2022-11-19T05:01:56.159Z,19.60
2022-11-19T05:03:59.834Z,18.60
2022-11-19T05:06:02.070Z,23.70
2022-11-19T05:08:04.205Z,20.80
2022-11-19T05:10:07.814Z,20.30
2022-11-19T05:12:10.195Z,25.33
2022-11-19T05:14:12.072Z,33.47
2022-11-19T05:16:14.257Z,44.70
2022-11-19T05:18:16.259Z,33.57
2022-11-19T05:20:18.300Z,45.87
2022-11-19T05:22:20.537Z,44.53
2022-11-19T05:24:22.695Z,44.90
2022-11-19T05:26:27.257Z,53.97
2022-11-19T05:28:38.413Z,56.17
2022-11-19T05:30:41.432Z,38.23
2022-11-19T05:32:45.633Z,29.00
2022-11-19T05:34:48.781Z,41.03
2022-11-19T05:36:50.856Z,35.63
2022-11-19T05:38:53.172Z,35.43
2022-11-19T05:40:55.466Z,28.37
2022-11-19T05:42:57.508Z,23.80
2022-11-19T05:45:00.033Z,17.27
2022-11-19T05:47:02.695Z,15.03
2022-11-19T05:49:05.009Z,12.00
2022-11-19T05:51:07.189Z,12.60
2022-11-19T05:53:10.120Z,11.83
2022-11-19T05:55:12.365Z,24.90
2022-11-19T05:57:14.857Z,21.87
2022-11-19T05:59:17.144Z,19.03
2022-11-19T06:01:26.716Z,15.33
2022-11-19T06:03:28.636Z,26.93
2022-11-19T06:05:38.783Z,80.03
2022-11-19T06:07:42.455Z,128.17
2022-11-19T06:09:44.570Z,92.13
2022-11-19T06:11:50.643Z,78.33
2022-11-19T06:13:53.696Z,56.10
2022-11-19T06:23:35.672Z,35.07
2022-11-19T06:25:38.102Z,35.23
2022-11-19T06:27:40.259Z,32.17
2022-11-19T06:29:42.058Z,32.53
2022-11-19T06:31:43.890Z,25.30
2022-11-19T06:33:45.956Z,22.83
2022-11-19T06:35:49.243Z,19.70
2022-11-19T06:37:51.136Z,18.60
2022-11-19T06:39:54.224Z,17.03
2022-11-19T06:42:16.066Z,32.73
2022-11-19T06:44:18.130Z,27.40
2022-11-19T06:46:20.329Z,18.53
2022-11-19T06:48:22.206Z,17.77
2022-11-19T06:50:24.509Z,17.27
2022-11-19T06:52:26.831Z,20.83
2022-11-19T06:54:28.683Z,17.07
2022-11-19T06:56:30.847Z,24.00
2022-11-19T06:58:36.963Z,17.27
2022-11-19T07:00:38.951Z,18.83
2022-11-19T07:02:41.155Z,23.17
2022-11-19T07:04:42.945Z,21.83
2022-11-19T07:06:44.669Z,19.40
2022-11-19T07:08:46.700Z,21.50
2022-11-19T07:10:48.515Z,21.63
2022-11-19T07:12:53.598Z,18.10
2022-11-19T07:14:59.738Z,14.70
2022-11-19T07:17:05.542Z,15.97
2022-11-19T07:19:09.091Z,22.27
2022-11-19T07:21:11.113Z,16.53
2022-11-19T07:23:13.290Z,15.60
2022-11-19T07:25:15.227Z,14.87
2022-11-19T07:27:17.082Z,13.10
2022-11-19T07:29:19.357Z,13.47
2022-11-19T07:31:21.679Z,14.00
2022-11-19T07:33:23.768Z,15.13
2022-11-19T07:35:25.851Z,15.63
2022-11-19T07:37:27.926Z,13.50
2022-11-19T07:39:30.117Z,16.37
2022-11-19T07:41:50.938Z,15.80
2022-11-19T07:43:52.956Z,13.53
2022-11-19T07:45:54.961Z,17.27
2022-11-19T07:47:56.757Z,15.63
2022-11-19T07:49:58.630Z,14.77
2022-11-19T07:52:00.748Z,15.73
2022-11-19T07:54:02.978Z,15.47
2022-11-19T07:56:05.161Z,17.03
2022-11-19T07:58:07.176Z,28.17
2022-11-19T08:00:09.571Z,33.90
2022-11-19T08:02:17.248Z,36.40
2022-11-19T08:04:19.434Z,31.27
2022-11-19T08:06:22.790Z,24.57
2022-11-19T08:08:24.812Z,21.97
2022-11-19T08:10:31.618Z,25.33
2022-11-19T08:12:33.888Z,22.60
2022-11-19T08:14:35.615Z,26.43
2022-11-19T08:16:57.678Z,26.83
2022-11-19T08:18:59.453Z,56.03
2022-11-19T08:21:09.420Z,40.17
2022-11-19T08:23:12.430Z,34.03
2022-11-19T08:25:14.461Z,25.60
2022-11-19T08:27:17.344Z,27.37
2022-11-19T08:29:22.004Z,29.93
2022-11-19T08:31:23.729Z,24.03
2022-11-19T08:33:25.733Z,22.90
2022-11-19T08:35:27.804Z,21.87
2022-11-19T08:37:29.776Z,19.33
2022-11-19T08:39:32.195Z,21.70
2022-11-19T08:41:53.255Z,23.80
2022-11-19T08:43:55.077Z,21.03
2022-11-19T08:45:56.908Z,25.63
2022-11-19T08:48:00.918Z,20.83
2022-11-19T08:50:02.788Z,22.50
2022-11-19T08:52:04.807Z,22.40
2022-11-19T08:54:06.977Z,19.87
2022-11-19T08:56:10.154Z,19.50
2022-11-19T08:58:13.565Z,20.10
2022-11-19T09:00:16.109Z,21.30
2022-11-19T09:02:18.258Z,20.50
2022-11-19T09:04:20.701Z,23.20
2022-11-19T09:06:22.693Z,23.87
2022-11-19T09:08:24.538Z,23.00
2022-11-19T09:10:26.456Z,23.83
2022-11-19T09:12:30.770Z,20.87
2022-11-19T09:14:32.688Z,26.30
2022-11-19T09:16:35.039Z,22.87
2022-11-19T09:18:42.222Z,24.00
2022-11-19T09:20:44.640Z,27.03
2022-11-19T09:22:46.492Z,30.33
2022-11-19T09:24:48.825Z,32.93
2022-11-19T09:26:52.944Z,38.23
2022-11-19T09:28:55.099Z,38.37
2022-11-19T09:31:03.351Z,43.07
2022-11-19T09:33:05.216Z,37.43
2022-11-19T09:35:07.545Z,33.90
2022-11-19T09:37:09.743Z,43.93
2022-11-19T09:39:12.017Z,50.77
2022-11-19T09:41:22.949Z,53.30
2022-11-19T09:47:38.480Z,29.07
2022-11-19T09:49:49.988Z,27.80
2022-11-19T09:51:58.604Z,22.97
2022-11-19T09:54:06.122Z,26.70
2022-11-19T09:56:15.029Z,23.37
2022-11-19T09:58:26.396Z,23.57
2022-11-19T10:00:31.742Z,19.97
2022-11-19T10:02:34.920Z,22.00
2022-11-19T10:04:37.108Z,25.10
2022-11-19T10:06:39.127Z,23.37
2022-11-19T10:08:59.613Z,21.17
2022-11-19T10:11:35.417Z,34.10
2022-11-19T10:13:46.365Z,28.63
2022-11-19T10:16:25.747Z,30.47
2022-11-19T10:18:42.467Z,24.43
2022-11-19T10:21:11.348Z,24.47
2022-11-19T10:23:27.282Z,24.00
2022-11-19T10:25:36.405Z,21.87
2022-11-19T10:27:46.740Z,21.67
2022-11-19T10:29:54.501Z,23.50
2022-11-19T10:32:20.334Z,22.20
2022-11-19T10:34:29.832Z,25.13
2022-11-19T10:36:42.148Z,25.33
2022-11-19T10:38:55.993Z,21.10
2022-11-19T10:41:05.275Z,24.33
2022-11-19T10:43:35.937Z,26.43
2022-11-19T10:45:38.105Z,30.63
2022-11-19T10:48:08.660Z,28.30
2022-11-19T10:50:24.197Z,25.70
2022-11-19T10:52:34.227Z,28.03
2022-11-19T10:54:38.074Z,28.17
2022-11-19T10:56:42.326Z,31.33
2022-11-19T10:59:12.117Z,29.23
2022-11-19T11:01:29.380Z,28.10
2022-11-19T11:03:44.429Z,28.50
2022-11-19T11:06:06.519Z,29.23
2022-11-19T11:08:13.949Z,28.17
2022-11-19T11:10:34.304Z,28.27
2022-11-19T11:12:56.515Z,29.57
2022-11-19T11:15:19.700Z,28.60
2022-11-19T11:17:30.591Z,22.80
2022-11-19T11:19:34.193Z,30.43
2022-11-19T11:21:39.737Z,30.23
2022-11-19T11:23:53.949Z,23.43
2022-11-19T11:26:11.533Z,21.83
2022-11-19T11:28:20.787Z,23.73
2022-11-19T11:30:22.972Z,34.03
2022-11-19T11:32:32.135Z,32.03
2022-11-19T11:34:40.434Z,36.67
2022-11-19T11:36:45.521Z,37.70
2022-11-19T11:38:50.010Z,36.03
2022-11-19T11:41:42.036Z,26.90
2022-11-19T11:43:29.507Z,24.33
2022-11-19T11:45:34.691Z,26.87
2022-11-19T11:47:39.737Z,20.80
2022-11-19T11:50:04.429Z,19.53
2022-11-19T11:52:09.731Z,18.17
2022-11-19T11:54:20.622Z,17.37
2022-11-19T11:56:22.938Z,20.37
2022-11-19T11:58:33.246Z,17.77
2022-11-19T12:00:41.288Z,19.90
2022-11-19T12:03:04.468Z,18.47
2022-11-19T12:05:15.873Z,23.80
2022-11-19T12:07:23.875Z,20.77
2022-11-19T12:09:42.765Z,22.77
2022-11-19T12:11:55.833Z,19.00
2022-11-19T12:14:12.665Z,21.87
2022-11-19T12:16:28.741Z,20.57
2022-11-19T12:19:09.323Z,21.73
2022-11-19T12:21:20.117Z,21.80
2022-11-19T12:23:53.108Z,24.00
2022-11-19T12:26:12.727Z,23.93
2022-11-19T12:28:48.736Z,25.53
2022-11-19T12:31:14.199Z,22.00
2022-11-19T12:33:52.625Z,26.93
2022-11-19T12:36:22.913Z,24.13
2022-11-19T12:38:55.475Z,25.27
2022-11-19T12:41:22.330Z,28.77
2022-11-19T12:43:42.898Z,24.93
2022-11-19T12:46:08.214Z,25.93
2022-11-19T12:48:18.951Z,26.70
2022-11-19T12:50:21.082Z,26.13
2022-11-19T12:52:23.354Z,24.20
2022-11-19T12:54:41.667Z,28.93
2022-11-19T12:56:52.155Z,23.53
2022-11-19T12:59:19.106Z,28.60
2022-11-19T13:01:27.010Z,35.47
2022-11-19T13:04:15.740Z,38.70
2022-11-19T13:06:25.426Z,35.77
2022-11-19T13:08:44.758Z,32.80
2022-11-19T13:10:57.811Z,33.23
2022-11-19T13:13:01.744Z,32.80
2022-11-19T13:15:09.998Z,37.60
2022-11-19T13:17:35.312Z,40.40
2022-11-19T13:19:41.562Z,46.90
2022-11-19T13:21:58.400Z,59.50
2022-11-19T13:24:21.550Z,50.03
2022-11-19T13:26:30.100Z,38.13
2022-11-19T13:28:40.325Z,30.87
2022-11-19T13:30:46.373Z,28.83
2022-11-19T13:32:57.573Z,25.47
2022-11-19T13:35:23.470Z,30.77
2022-11-19T13:37:48.306Z,32.00
2022-11-19T13:40:30.944Z,37.00
2022-11-19T13:43:10.433Z,41.77
2022-11-19T13:45:16.545Z,51.17
2022-11-19T13:47:42.255Z,52.50
2022-11-19T13:50:11.918Z,45.77
2022-11-19T13:52:30.036Z,38.43
2022-11-19T13:54:38.727Z,39.30
2022-11-19T13:56:50.022Z,56.67
2022-11-19T13:58:56.110Z,53.37
2022-11-19T14:01:08.524Z,45.17
2022-11-19T14:03:32.195Z,40.03
2022-11-19T14:05:52.433Z,39.27
2022-11-19T14:08:19.003Z,42.00
2022-11-19T14:10:54.906Z,41.43
2022-11-19T14:13:15.467Z,51.70
2022-11-19T14:15:48.174Z,55.77
2022-11-19T14:18:40.762Z,57.37
2022-11-19T14:21:03.962Z,58.07
2022-11-19T14:23:27.059Z,86.13
2022-11-19T14:26:08.019Z,77.10
2022-11-19T14:28:46.922Z,52.80
2022-11-19T14:31:04.194Z,51.13
2022-11-19T14:33:44.421Z,53.17
2022-11-19T14:35:46.874Z,44.03
2022-11-19T14:38:35.264Z,40.00
2022-11-19T14:40:43.516Z,39.20
2022-11-19T14:43:24.431Z,43.10
2022-11-19T14:45:26.868Z,41.43
2022-11-19T14:47:37.941Z,46.17
2022-11-19T14:49:40.467Z,44.33
2022-11-19T14:51:53.003Z,48.97
2022-11-19T14:54:01.358Z,54.83
2022-11-19T14:56:12.457Z,54.67
2022-11-19T14:58:24.958Z,61.83
2022-11-19T15:00:41.927Z,48.47
2022-11-19T15:02:54.241Z,37.50
2022-11-19T15:05:23.759Z,41.73
2022-11-19T15:07:44.244Z,34.80
2022-11-19T15:10:04.590Z,37.87
2022-11-19T15:12:08.477Z,36.93
2022-11-19T15:14:29.235Z,33.13
2022-11-19T15:16:34.385Z,38.27
2022-11-19T15:19:07.805Z,35.77
2022-11-19T15:21:31.095Z,36.60
2022-11-19T15:23:56.357Z,35.60
2022-11-19T15:26:23.336Z,37.07
2022-11-19T15:28:47.101Z,35.90
2022-11-19T15:31:32.298Z,40.77
2022-11-19T15:34:16.111Z,39.17
2022-11-19T15:36:39.855Z,44.37
2022-11-19T15:39:03.391Z,38.33
2022-11-19T15:41:07.807Z,38.07
2022-11-19T15:43:27.547Z,31.07
2022-11-19T15:45:37.485Z,36.73
2022-11-19T15:47:48.607Z,41.23
2022-11-19T15:49:57.372Z,47.87
2022-11-19T15:52:17.631Z,42.53
2022-11-19T15:54:27.388Z,40.00
2022-11-19T15:56:34.616Z,55.33
2022-11-19T15:58:42.017Z,41.70
2022-11-19T16:00:48.527Z,33.87
2022-11-19T16:02:53.069Z,38.30
2022-11-19T16:04:55.632Z,38.97
2022-11-19T16:06:57.793Z,67.43
2022-11-19T16:09:05.100Z,62.53
2022-11-19T16:11:26.453Z,50.33
2022-11-19T16:14:07.316Z,51.27
2022-11-19T16:16:40.982Z,45.20
2022-11-19T16:18:51.270Z,41.37
2022-11-19T16:20:56.077Z,40.83
2022-11-19T16:23:08.514Z,44.97
2022-11-19T16:25:34.962Z,38.57
2022-11-19T16:27:42.147Z,40.70
2022-11-19T16:29:46.625Z,41.47
2022-11-19T16:31:54.868Z,40.63
2022-11-19T16:33:58.911Z,42.97
2022-11-19T16:36:18.653Z,39.60
2022-11-19T16:38:28.018Z,43.40
2022-11-19T16:40:50.455Z,40.47
2022-11-19T16:43:00.691Z,46.87
2022-11-19T16:45:08.527Z,60.80
2022-11-19T16:47:34.697Z,68.90
2022-11-19T16:49:53.204Z,96.53
2022-11-19T16:51:55.589Z,71.30
2022-11-19T16:53:57.725Z,72.03
2022-11-19T16:56:00.252Z,80.57
2022-11-19T16:58:17.531Z,57.47
2022-11-19T17:00:22.828Z,62.77
2022-11-19T17:02:30.943Z,72.83
2022-11-19T17:04:33.003Z,64.87
2022-11-19T17:06:37.844Z,84.50
2022-11-19T17:08:39.996Z,83.03
2022-11-19T17:10:42.302Z,76.97
2022-11-19T17:12:55.951Z,74.30
2022-11-19T17:15:00.494Z,65.97
2022-11-19T17:17:03.857Z,118.13
2022-11-19T17:19:35.231Z,79.47
2022-11-19T17:21:37.441Z,72.73
2022-11-19T17:23:49.328Z,144.03
2022-11-19T17:26:00.133Z,63.50
2022-11-19T17:28:02.676Z,61.60
2022-11-19T17:30:21.272Z,50.83
2022-11-19T17:32:23.481Z,45.50
2022-11-19T17:34:32.804Z,40.17
2022-11-19T17:36:36.050Z,66.07
2022-11-19T17:38:38.346Z,69.70
2022-11-19T17:40:46.002Z,65.50
2022-11-19T17:43:06.933Z,53.27
2022-11-19T17:45:11.181Z,49.63
2022-11-19T17:47:24.613Z,46.27
2022-11-19T17:49:26.974Z,44.47
2022-11-19T17:51:29.133Z,43.97
2022-11-19T17:53:31.304Z,68.80
2022-11-19T17:55:34.085Z,51.90
2022-11-19T17:57:41.243Z,49.13
2022-11-19T17:59:47.264Z,42.47
2022-11-19T18:01:49.735Z,54.37
2022-11-19T18:03:52.091Z,49.33
2022-11-19T18:05:54.523Z,43.73
2022-11-19T18:07:59.563Z,67.07
2022-11-19T18:10:01.554Z,64.60
2022-11-19T18:12:05.288Z,54.60
2022-11-19T18:14:10.174Z,53.67
2022-11-19T18:16:17.763Z,59.17
2022-11-19T18:18:19.917Z,61.70
2022-11-19T18:20:22.224Z,64.70
2022-11-19T18:22:24.408Z,75.47
2022-11-19T18:24:26.987Z,73.13
2022-11-19T18:26:29.154Z,99.23
2022-11-19T18:28:31.124Z,108.23
2022-11-19T18:30:33.246Z,102.10
2022-11-19T18:32:35.659Z,100.23
2022-11-19T18:34:37.944Z,68.33
2022-11-19T18:36:40.076Z,65.80
2022-11-19T18:38:42.833Z,58.03
2022-11-19T18:40:48.243Z,51.00
2022-11-19T18:43:09.026Z,47.43
2022-11-19T18:45:12.482Z,40.70
2022-11-19T18:47:15.794Z,37.57
2022-11-19T18:49:18.301Z,36.57
2022-11-19T18:51:21.237Z,40.17
2022-11-19T18:53:23.437Z,40.90
2022-11-19T18:55:25.829Z,45.30
2022-11-19T18:57:27.914Z,57.13
2022-11-19T18:59:30.296Z,49.80
2022-11-19T19:01:34.377Z,65.53
2022-11-19T19:03:37.864Z,104.30
2022-11-19T19:05:40.731Z,102.80
2022-11-19T19:07:43.803Z,78.53
2022-11-19T19:09:46.589Z,65.83
2022-11-19T19:12:13.852Z,64.13
2022-11-19T19:14:16.358Z,55.73
2022-11-19T19:16:18.852Z,48.40
2022-11-19T19:18:23.837Z,46.43
2022-11-19T19:20:26.492Z,50.30
2022-11-19T19:22:29.577Z,53.17
2022-11-19T19:24:32.697Z,51.97
2022-11-19T19:26:34.546Z,52.93
2022-11-19T19:28:37.088Z,60.73
2022-11-19T19:30:41.778Z,49.50
2022-11-19T19:32:44.648Z,67.07
2022-11-19T19:34:46.902Z,77.60
2022-11-19T19:36:53.236Z,72.60
2022-11-19T19:38:56.209Z,59.23
2022-11-19T19:41:05.412Z,56.83
2022-11-19T19:43:07.400Z,66.17
2022-11-19T19:45:12.331Z,66.23
2022-11-19T19:47:14.453Z,72.50
2022-11-19T19:49:16.938Z,74.73
2022-11-19T19:51:20.947Z,88.53
2022-11-19T19:53:22.986Z,90.77
2022-11-19T19:55:25.324Z,79.17
2022-11-19T19:57:30.840Z,65.07
2022-11-19T19:59:32.874Z,56.10
2022-11-19T20:01:36.612Z,49.60
2022-11-19T20:03:39.154Z,66.67
2022-11-19T20:05:48.184Z,50.43
2022-11-19T20:07:50.121Z,44.73
2022-11-19T20:09:52.106Z,40.43
2022-11-19T20:11:53.919Z,39.97
2022-11-19T20:14:14.247Z,37.50
2022-11-19T20:16:21.759Z,33.90
2022-11-19T20:18:24.681Z,34.47
2022-11-19T20:20:26.854Z,36.70
2022-11-19T20:22:29.102Z,34.93
2022-11-19T20:24:30.959Z,39.30
2022-11-19T20:26:32.751Z,33.80
2022-11-19T20:28:34.739Z,35.57
2022-11-19T20:30:37.048Z,35.20
2022-11-19T20:32:39.613Z,31.83
2022-11-19T20:34:41.564Z,31.90
2022-11-19T20:36:44.248Z,23.27
2022-11-19T20:38:46.941Z,22.20
2022-11-19T20:41:00.428Z,25.53
2022-11-19T20:43:21.017Z,24.87
2022-11-19T20:45:23.152Z,29.93
2022-11-19T20:47:25.038Z,26.00
2022-11-19T20:49:33.580Z,28.63
2022-11-19T20:51:36.762Z,28.90
2022-11-19T20:53:38.550Z,26.90
2022-11-19T20:55:53.286Z,26.57
2022-11-19T20:58:02.806Z,31.43
2022-11-19T21:00:06.229Z,40.63
2022-11-19T21:02:09.775Z,39.10
2022-11-19T21:04:12.609Z,43.50
2022-11-19T21:06:14.670Z,61.80
2022-11-19T21:08:18.299Z,123.27
2022-11-19T21:10:20.551Z,153.40
2022-11-19T21:12:23.366Z,147.40
2022-11-19T21:14:25.770Z,169.80
2022-11-19T21:16:31.881Z,113.20
2022-11-19T21:18:36.793Z,102.57
2022-11-19T21:20:38.999Z,98.07
2022-11-19T21:22:41.255Z,90.93
2022-11-19T21:24:43.454Z,76.07
2022-11-19T21:26:45.648Z,67.03
2022-11-19T21:28:49.799Z,71.40
2022-11-19T21:30:52.529Z,69.07
2022-11-19T21:32:54.524Z,62.70
2022-11-19T21:34:57.140Z,60.73
2022-11-19T21:36:59.407Z,52.27
2022-11-19T21:39:01.862Z,51.17
2022-11-19T21:41:06.144Z,44.50
2022-11-19T21:43:08.414Z,54.50
2022-11-19T21:45:10.726Z,56.50
2022-11-19T21:47:13.120Z,53.53
2022-11-19T21:49:15.088Z,52.80
2022-11-19T21:51:23.021Z,54.70
2022-11-19T21:53:26.739Z,48.87
2022-11-19T21:55:28.952Z,48.90
2022-11-19T21:57:31.305Z,49.00
2022-11-19T21:59:33.278Z,49.13
2022-11-19T22:01:37.883Z,41.07
2022-11-19T22:03:39.854Z,44.00
2022-11-19T22:05:42.698Z,49.03
2022-11-19T22:07:46.586Z,42.17
2022-11-19T22:09:48.570Z,49.10
2022-11-19T22:11:50.728Z,42.03
2022-11-19T22:13:53.571Z,44.10
2022-11-19T22:16:01.757Z,43.50
2022-11-19T22:18:06.149Z,88.23
2022-11-19T22:20:08.514Z,219.67
2022-11-19T22:22:36.389Z,170.60
2022-11-19T22:24:38.481Z,98.93
2022-11-19T22:26:40.688Z,92.17
2022-11-19T22:28:42.824Z,98.10
2022-11-19T22:30:44.772Z,123.37
2022-11-19T22:32:47.122Z,99.17
2022-11-19T22:34:49.162Z,69.77
2022-11-19T22:36:51.552Z,60.40
2022-11-19T22:38:53.943Z,67.97
2022-11-19T22:41:05.046Z,63.10
2022-11-19T22:43:07.534Z,62.90
2022-11-19T22:45:09.886Z,62.33
2022-11-19T22:47:12.019Z,76.90
2022-11-19T22:49:14.171Z,72.63
2022-11-19T22:51:20.338Z,66.90
2022-11-19T22:53:22.626Z,61.10
2022-11-19T22:55:24.681Z,69.47
2022-11-19T22:57:28.043Z,65.57
2022-11-19T22:59:34.530Z,65.93
2022-11-19T23:01:37.104Z,58.07
2022-11-19T23:03:39.108Z,47.97
2022-11-19T23:05:41.655Z,43.40
2022-11-19T23:07:46.676Z,46.53
2022-11-19T23:09:48.753Z,43.87
2022-11-19T23:12:09.740Z,40.43
2022-11-19T23:14:17.862Z,35.30
2022-11-19T23:16:20.673Z,33.43
2022-11-19T23:18:22.785Z,25.83
2022-11-19T23:20:24.837Z,31.67
2022-11-19T23:22:27.071Z,24.47
2022-11-19T23:24:32.596Z,22.77
2022-11-19T23:26:35.157Z,22.20
2022-11-19T23:28:38.339Z,21.90
2022-11-19T23:30:40.472Z,21.03
2022-11-19T23:32:45.456Z,19.30
2022-11-19T23:34:47.910Z,18.80
2022-11-19T23:36:50.413Z,19.20
2022-11-19T23:38:52.679Z,24.40
2022-11-19T23:40:59.924Z,28.97
2022-11-19T23:43:01.775Z,27.83
2022-11-19T23:45:04.200Z,28.27
2022-11-19T23:47:06.824Z,23.93
2022-11-19T23:49:11.111Z,20.73
2022-11-19T23:51:16.001Z,14.80
2022-11-19T23:53:18.593Z,18.03
2022-11-19T23:55:20.902Z,13.47
2022-11-19T23:57:23.040Z,19.73
2022-11-19T23:59:25.909Z,23.77
